createdAt,value
2023-03-07T00:00:54.342Z,2.90
2023-03-07T00:03:58.004Z,2.85
2023-03-07T00:07:00.751Z,4.13
2023-03-07T00:10:03.530Z,4.93
2023-03-07T00:13:06.466Z,4.25
2023-03-07T00:16:13.278Z,5.13
2023-03-07T00:19:16.070Z,4.88
2023-03-07T00:22:18.738Z,2.70
2023-03-07T00:25:21.576Z,3.90
2023-03-07T00:28:24.188Z,4.05
2023-03-07T00:31:27.079Z,3.58
2023-03-07T00:34:29.659Z,3.22
2023-03-07T00:37:32.324Z,4.45
2023-03-07T00:40:35.095Z,4.38
2023-03-07T00:43:37.926Z,4.00
2023-03-07T00:46:40.489Z,3.58
2023-03-07T00:49:44.592Z,4.05
2023-03-07T00:52:47.612Z,4.40
2023-03-07T00:56:05.833Z,3.60
2023-03-07T00:59:11.619Z,3.83
2023-03-07T01:02:14.328Z,3.53
2023-03-07T01:05:17.549Z,3.60
2023-03-07T01:08:21.180Z,3.78
2023-03-07T01:11:24.072Z,3.15
2023-03-07T01:14:26.831Z,2.40
2023-03-07T01:17:29.615Z,4.05
2023-03-07T01:20:33.777Z,3.33
2023-03-07T01:23:36.496Z,2.17
2023-03-07T01:26:39.215Z,4.63
2023-03-07T01:29:41.871Z,8.57
2023-03-07T01:32:44.801Z,8.10
2023-03-07T01:35:47.567Z,11.52
2023-03-07T01:38:50.895Z,7.78
2023-03-07T01:41:53.747Z,15.50
2023-03-07T01:45:35.852Z,8.68
2023-03-07T01:48:40.038Z,4.75
2023-03-07T01:51:46.659Z,3.53
2023-03-07T01:54:52.639Z,4.43
2023-03-07T01:58:00.633Z,4.35
2023-03-07T02:01:03.345Z,3.20
2023-03-07T02:04:17.420Z,2.88
2023-03-07T02:07:22.403Z,3.50
2023-03-07T02:10:26.017Z,3.00
2023-03-07T02:13:29.146Z,4.20
2023-03-07T02:16:31.839Z,2.45
2023-03-07T02:19:38.009Z,3.60
2023-03-07T02:22:41.603Z,3.30
2023-03-07T02:25:47.090Z,3.50
2023-03-07T02:28:49.925Z,3.30
2023-03-07T02:31:52.563Z,2.92
2023-03-07T02:34:55.235Z,1.90
2023-03-07T02:38:03.437Z,3.25
2023-03-07T02:44:11.511Z,2.95
2023-03-07T02:47:14.707Z,2.45
2023-03-07T02:50:17.772Z,3.17
2023-03-07T02:53:24.356Z,3.60
2023-03-07T02:56:27.035Z,3.20
2023-03-07T02:59:29.618Z,3.42
2023-03-07T03:02:32.348Z,3.47
2023-03-07T03:05:34.925Z,3.55
2023-03-07T03:08:37.644Z,3.20
2023-03-07T03:11:40.300Z,4.05
2023-03-07T03:14:42.922Z,2.63
2023-03-07T03:17:47.919Z,3.83
2023-03-07T03:20:50.559Z,3.47
2023-03-07T03:23:53.267Z,4.32
2023-03-07T03:26:58.187Z,2.75
2023-03-07T03:30:02.384Z,2.63
2023-03-07T03:33:06.200Z,4.22
2023-03-07T03:36:13.777Z,3.33
2023-03-07T03:39:17.178Z,2.80
2023-03-07T03:42:24.208Z,6.15
2023-03-07T03:45:27.129Z,3.80
2023-03-07T03:48:29.928Z,3.35
2023-03-07T03:51:32.914Z,3.78
2023-03-07T03:54:36.033Z,3.17
2023-03-07T03:57:39.046Z,3.53
2023-03-07T04:00:42.038Z,4.30
2023-03-07T04:03:47.614Z,4.65
2023-03-07T04:06:51.242Z,2.92
2023-03-07T04:09:53.843Z,4.28
2023-03-07T04:12:56.848Z,4.82
2023-03-07T04:15:59.498Z,4.97
2023-03-07T04:19:02.140Z,3.85
2023-03-07T04:22:04.956Z,3.95
2023-03-07T04:25:08.081Z,4.00
2023-03-07T04:28:10.622Z,4.55
2023-03-07T04:31:19.485Z,3.67
2023-03-07T04:34:22.149Z,4.03
2023-03-07T04:37:24.981Z,4.22
2023-03-07T04:40:27.559Z,4.50
2023-03-07T04:43:30.153Z,3.75
2023-03-07T04:46:35.511Z,5.28
2023-03-07T04:49:38.410Z,4.05
2023-03-07T04:52:42.406Z,6.22
2023-03-07T04:55:45.422Z,5.35
2023-03-07T04:58:47.956Z,4.45
2023-03-07T05:01:52.771Z,5.90
2023-03-07T05:04:55.473Z,7.88
2023-03-07T05:07:58.729Z,6.80
2023-03-07T05:11:01.887Z,9.00
2023-03-07T05:14:05.365Z,6.30
2023-03-07T05:17:09.750Z,8.10
2023-03-07T05:20:13.281Z,14.50
2023-03-07T05:23:18.090Z,6.43
2023-03-07T05:26:23.312Z,7.07
2023-03-07T05:29:26.459Z,6.78
2023-03-07T05:32:29.121Z,4.72
2023-03-07T05:35:32.842Z,5.10
2023-03-07T05:38:36.926Z,6.50
2023-03-07T05:41:39.546Z,5.60
2023-03-07T05:44:43.102Z,9.80
2023-03-07T05:47:45.979Z,4.38
2023-03-07T05:50:49.387Z,5.75
2023-03-07T05:53:53.784Z,6.03
2023-03-07T05:56:57.439Z,6.00
2023-03-07T06:00:00.280Z,7.43
2023-03-07T06:03:03.787Z,8.38
2023-03-07T06:06:07.991Z,5.88
2023-03-07T06:09:10.904Z,7.68
2023-03-07T06:12:14.942Z,6.65
2023-03-07T06:15:17.943Z,9.00
2023-03-07T06:18:22.559Z,9.68
2023-03-07T06:21:25.616Z,8.38
2023-03-07T06:24:28.423Z,8.00
2023-03-07T06:27:36.281Z,9.13
2023-03-07T06:30:39.674Z,7.85
2023-03-07T06:33:43.115Z,6.82
2023-03-07T06:36:48.764Z,8.52
2023-03-07T06:39:54.069Z,7.97
2023-03-07T06:42:56.812Z,8.88
2023-03-07T06:45:59.756Z,6.47
2023-03-07T06:49:08.459Z,9.20
2023-03-07T06:52:11.580Z,8.80
2023-03-07T06:55:14.316Z,6.75
2023-03-07T06:58:17.517Z,8.02
2023-03-07T07:01:23.077Z,10.43
2023-03-07T07:04:28.248Z,10.60
2023-03-07T07:07:31.149Z,7.93
2023-03-07T07:10:34.930Z,6.72
2023-03-07T07:13:37.666Z,8.10
2023-03-07T07:16:41.653Z,7.50
2023-03-07T07:19:44.978Z,8.73
2023-03-07T07:22:47.953Z,7.78
2023-03-07T07:25:50.521Z,6.43
2023-03-07T07:28:53.578Z,7.03
2023-03-07T07:31:56.519Z,7.25
2023-03-07T07:34:59.185Z,6.65
2023-03-07T07:38:02.180Z,6.93
2023-03-07T07:41:05.196Z,6.53
2023-03-07T07:44:08.877Z,8.10
2023-03-07T07:47:18.227Z,7.75
2023-03-07T07:50:21.980Z,8.70
2023-03-07T07:53:24.997Z,8.07
2023-03-07T07:56:27.767Z,6.75
2023-03-07T07:59:32.006Z,7.05
2023-03-07T08:02:36.021Z,7.32
2023-03-07T08:05:44.236Z,7.65
2023-03-07T08:08:48.314Z,7.90
2023-03-07T08:11:51.150Z,6.63
2023-03-07T08:14:53.926Z,8.88
2023-03-07T08:17:56.761Z,6.95
2023-03-07T08:21:00.016Z,7.10
2023-03-07T08:24:03.494Z,6.50
2023-03-07T08:27:06.352Z,8.32
2023-03-07T08:30:09.694Z,6.53
2023-03-07T08:33:12.269Z,7.68
2023-03-07T08:36:15.124Z,6.95
2023-03-07T08:39:17.702Z,7.68
2023-03-07T08:42:20.638Z,8.90
2023-03-07T08:45:24.226Z,6.53
2023-03-07T08:48:27.300Z,7.47
2023-03-07T08:51:29.972Z,8.48
2023-03-07T08:54:32.798Z,9.35
2023-03-07T08:57:35.383Z,9.15
2023-03-07T09:00:39.082Z,7.38
2023-03-07T09:03:42.916Z,7.68
2023-03-07T09:06:45.573Z,7.00
2023-03-07T09:09:48.138Z,10.25
2023-03-07T09:12:55.341Z,10.20
2023-03-07T09:19:00.570Z,7.60
2023-03-07T09:22:03.552Z,9.45
2023-03-07T09:25:06.606Z,9.50
2023-03-07T09:28:09.206Z,8.98
2023-03-07T09:31:13.958Z,10.07
2023-03-07T09:34:16.621Z,7.90
2023-03-07T09:37:19.577Z,9.70
2023-03-07T09:40:23.914Z,9.48
2023-03-07T09:43:27.379Z,8.32
2023-03-07T09:47:22.757Z,10.60
2023-03-07T09:50:55.961Z,9.02
2023-03-07T09:54:15.396Z,8.43
2023-03-07T09:57:31.861Z,9.23
2023-03-07T10:00:38.304Z,9.63
2023-03-07T10:03:49.878Z,10.17
2023-03-07T10:06:58.564Z,9.25
2023-03-07T10:10:03.111Z,9.13
2023-03-07T10:13:37.545Z,9.75
2023-03-07T10:16:44.806Z,10.40
2023-03-07T10:19:52.618Z,9.43
2023-03-07T10:23:01.888Z,10.40
2023-03-07T10:26:16.089Z,10.82
2023-03-07T10:29:20.376Z,10.05
2023-03-07T10:32:42.034Z,10.32
2023-03-07T10:35:50.408Z,10.35
2023-03-07T10:39:07.242Z,9.55
2023-03-07T10:42:14.177Z,9.17
2023-03-07T10:45:17.534Z,9.30
2023-03-07T10:48:21.375Z,9.85
2023-03-07T10:52:01.443Z,10.45
2023-03-07T10:55:38.649Z,8.70
2023-03-07T10:59:05.951Z,9.48
2023-03-07T11:02:23.854Z,8.53
2023-03-07T11:08:36.920Z,10.20
2023-03-07T11:11:39.801Z,9.13
2023-03-07T11:14:49.846Z,9.52
2023-03-07T11:17:53.048Z,9.02
2023-03-07T11:20:56.235Z,8.35
2023-03-07T11:24:17.526Z,8.07
2023-03-07T11:27:40.425Z,7.55
2023-03-07T11:30:48.038Z,9.27
2023-03-07T11:33:59.973Z,7.75
2023-03-07T11:37:38.334Z,9.63
2023-03-07T11:40:49.702Z,8.65
2023-03-07T11:44:13.119Z,9.85
2023-03-07T11:47:54.746Z,9.18
2023-03-07T11:50:57.929Z,9.13
2023-03-07T11:54:04.974Z,7.78
2023-03-07T11:57:19.357Z,8.63
2023-03-07T12:00:49.363Z,9.18
2023-03-07T12:04:20.285Z,9.63
2023-03-07T12:07:44.412Z,9.27
2023-03-07T12:11:10.378Z,9.63
2023-03-07T12:14:31.350Z,10.07
2023-03-07T12:17:53.008Z,8.95
2023-03-07T12:21:34.312Z,8.40
2023-03-07T12:24:55.964Z,8.63
2023-03-07T12:27:58.607Z,9.25
2023-03-07T12:31:04.236Z,10.05
2023-03-07T12:34:09.988Z,14.05
2023-03-07T12:37:24.198Z,8.55
2023-03-07T12:40:35.049Z,11.00
2023-03-07T12:43:51.921Z,9.30
2023-03-07T12:47:22.743Z,7.40
2023-03-07T12:50:29.142Z,9.50
2023-03-07T12:54:04.526Z,9.30
2023-03-07T12:57:21.367Z,8.98
2023-03-07T13:00:25.400Z,8.70
2023-03-07T13:03:41.363Z,9.18
2023-03-07T13:06:45.267Z,9.10
2023-03-07T13:09:49.623Z,9.77
2023-03-07T13:12:53.069Z,8.18
2023-03-07T13:16:07.043Z,8.10
2023-03-07T13:19:31.583Z,7.85
2023-03-07T13:22:37.297Z,8.60
2023-03-07T13:25:49.089Z,8.90
2023-03-07T13:28:52.512Z,8.80
2023-03-07T13:31:55.177Z,9.60
2023-03-07T13:34:57.925Z,9.07
2023-03-07T13:38:15.783Z,7.80
2023-03-07T13:41:45.531Z,7.93
2023-03-07T13:44:48.198Z,7.55
2023-03-07T13:47:50.948Z,8.50
2023-03-07T13:50:56.046Z,7.85
2023-03-07T13:54:16.960Z,7.95
2023-03-07T13:57:20.951Z,8.15
2023-03-07T14:00:32.454Z,8.68
2023-03-07T14:03:41.117Z,7.80
2023-03-07T14:06:50.567Z,7.32
2023-03-07T14:09:56.838Z,7.22
2023-03-07T14:13:21.538Z,9.65
2023-03-07T14:16:53.270Z,8.15
2023-03-07T14:20:17.865Z,6.90
2023-03-07T14:23:54.092Z,9.05
2023-03-07T14:26:58.531Z,7.90
2023-03-07T14:30:01.350Z,6.75
2023-03-07T14:33:04.168Z,7.72
2023-03-07T14:36:23.346Z,8.40
2023-03-07T14:39:33.645Z,7.78
2023-03-07T14:42:47.179Z,7.63
2023-03-07T14:45:59.825Z,7.75
2023-03-07T14:49:41.183Z,7.03
2023-03-07T14:52:44.908Z,7.75
2023-03-07T14:55:49.728Z,7.43
2023-03-07T14:58:58.678Z,8.35
2023-03-07T15:02:01.417Z,8.65
2023-03-07T15:05:04.952Z,8.88
2023-03-07T15:08:23.324Z,6.65
2023-03-07T15:11:28.789Z,8.07
2023-03-07T15:14:52.993Z,8.82
2023-03-07T15:18:06.421Z,8.07
2023-03-07T15:21:09.679Z,8.23
2023-03-07T15:24:31.703Z,8.98
2023-03-07T15:27:34.611Z,8.32
2023-03-07T15:30:38.584Z,8.40
2023-03-07T15:33:42.543Z,7.80
2023-03-07T15:36:45.617Z,12.13
2023-03-07T15:39:59.105Z,12.23
2023-03-07T15:43:04.889Z,9.40
2023-03-07T15:46:17.108Z,7.20
2023-03-07T15:49:22.824Z,7.32
2023-03-07T15:52:34.463Z,8.05
2023-03-07T15:55:38.790Z,9.13
2023-03-07T15:58:44.283Z,6.55
2023-03-07T16:01:47.408Z,10.00
2023-03-07T16:04:50.132Z,8.38
2023-03-07T16:07:57.677Z,8.68
2023-03-07T16:11:04.517Z,7.25
2023-03-07T16:14:30.401Z,6.00
2023-03-07T16:17:39.864Z,5.72
2023-03-07T16:20:42.678Z,6.75
2023-03-07T16:23:45.994Z,5.35
2023-03-07T16:26:49.031Z,5.32
2023-03-07T16:29:52.884Z,5.47
2023-03-07T16:32:55.995Z,6.65
2023-03-07T16:35:58.763Z,4.75
2023-03-07T16:39:01.537Z,5.43
2023-03-07T16:42:04.721Z,5.65
2023-03-07T16:45:32.755Z,5.70
2023-03-07T16:48:36.589Z,5.07
2023-03-07T16:51:40.099Z,5.38
2023-03-07T16:54:43.779Z,4.20
2023-03-07T16:57:51.010Z,5.65
2023-03-07T17:00:54.961Z,4.63
2023-03-07T17:04:05.737Z,5.45
2023-03-07T17:07:26.922Z,6.03
2023-03-07T17:10:29.938Z,5.43
2023-03-07T17:13:32.988Z,5.78
2023-03-07T17:16:39.551Z,4.68
2023-03-07T17:19:42.548Z,4.97
2023-03-07T17:22:45.562Z,4.75
2023-03-07T17:25:48.502Z,6.28
2023-03-07T17:28:51.612Z,5.50
2023-03-07T17:31:54.406Z,5.18
2023-03-07T17:34:57.300Z,5.90
2023-03-07T17:38:00.106Z,6.40
2023-03-07T17:41:02.968Z,5.18
2023-03-07T17:44:06.439Z,5.90
2023-03-07T17:47:09.348Z,4.95
2023-03-07T17:50:13.158Z,5.20
2023-03-07T17:53:16.219Z,6.35
2023-03-07T17:56:19.356Z,5.72
2023-03-07T17:59:22.535Z,7.47
2023-03-07T18:02:26.341Z,5.68
2023-03-07T18:05:29.757Z,6.75
2023-03-07T18:08:32.933Z,9.98
2023-03-07T18:11:37.338Z,5.72
2023-03-07T18:14:40.756Z,7.65
2023-03-07T18:17:49.093Z,5.47
2023-03-07T18:21:22.352Z,5.85
2023-03-07T18:24:27.424Z,5.95
2023-03-07T18:27:30.338Z,5.05
2023-03-07T18:30:34.482Z,7.68
2023-03-07T18:33:38.479Z,5.22
2023-03-07T18:36:42.220Z,6.10
2023-03-07T18:39:45.790Z,5.25
2023-03-07T18:42:49.640Z,6.50
2023-03-07T18:45:53.880Z,5.20
2023-03-07T18:48:57.773Z,5.75
2023-03-07T18:52:00.556Z,6.53
2023-03-07T18:55:03.618Z,5.93
2023-03-07T18:58:06.310Z,7.57
2023-03-07T19:01:21.143Z,6.50
2023-03-07T19:04:23.982Z,5.03
2023-03-07T19:07:28.960Z,7.28
2023-03-07T19:10:32.109Z,5.70
2023-03-07T19:13:35.572Z,7.00
2023-03-07T19:16:38.656Z,5.50
2023-03-07T19:19:41.697Z,14.77
2023-03-07T19:22:44.980Z,8.35
2023-03-07T19:25:48.850Z,9.02
2023-03-07T19:28:53.528Z,9.10
2023-03-07T19:31:56.687Z,5.82
2023-03-07T19:34:59.635Z,7.00
2023-03-07T19:38:02.546Z,6.57
2023-03-07T19:41:07.330Z,6.97
2023-03-07T19:44:12.508Z,9.80
2023-03-07T19:47:15.368Z,5.25
2023-03-07T19:50:19.025Z,7.30
2023-03-07T19:53:24.475Z,10.10
2023-03-07T19:56:30.750Z,6.05
2023-03-07T19:59:33.592Z,6.03
2023-03-07T20:02:38.313Z,8.48
2023-03-07T20:05:43.139Z,8.35
2023-03-07T20:08:48.583Z,9.23
2023-03-07T20:11:51.329Z,7.82
2023-03-07T20:14:54.179Z,10.52
2023-03-07T20:17:57.540Z,5.47
2023-03-07T20:21:05.760Z,6.60
2023-03-07T20:24:09.114Z,9.07
2023-03-07T20:27:11.896Z,7.10
2023-03-07T20:30:15.554Z,6.15
2023-03-07T20:33:18.365Z,7.40
2023-03-07T20:36:26.678Z,6.90
2023-03-07T20:39:29.706Z,7.68
2023-03-07T20:42:32.920Z,7.32
2023-03-07T20:45:35.789Z,7.30
2023-03-07T20:48:39.120Z,7.75
2023-03-07T20:51:42.445Z,9.02
2023-03-07T20:54:45.707Z,7.53
2023-03-07T20:57:48.740Z,8.98
2023-03-07T21:00:53.250Z,7.05
2023-03-07T21:03:56.651Z,7.80
2023-03-07T21:06:59.526Z,6.50
2023-03-07T21:10:02.246Z,7.70
2023-03-07T21:13:05.099Z,5.93
2023-03-07T21:16:19.832Z,8.20
2023-03-07T21:19:22.539Z,15.32
2023-03-07T21:22:25.244Z,11.65
2023-03-07T21:25:28.033Z,15.02
2023-03-07T21:28:35.277Z,10.68
2023-03-07T21:34:41.711Z,7.72
2023-03-07T21:37:44.422Z,7.43
2023-03-07T21:40:47.474Z,6.75
2023-03-07T21:43:50.168Z,6.50
2023-03-07T21:46:53.085Z,8.57
2023-03-07T21:49:56.139Z,7.68
2023-03-07T21:52:58.977Z,6.95
2023-03-07T21:56:28.264Z,9.45
2023-03-07T21:59:33.659Z,8.23
2023-03-07T22:02:37.377Z,7.38
2023-03-07T22:05:40.605Z,7.97
2023-03-07T22:08:43.216Z,6.03
2023-03-07T22:11:45.862Z,6.65
2023-03-07T22:14:48.790Z,7.03
2023-03-07T22:17:51.525Z,6.80
2023-03-07T22:20:55.401Z,7.32
2023-03-07T22:24:00.127Z,7.20
2023-03-07T22:27:02.915Z,6.72
2023-03-07T22:30:06.804Z,10.40
2023-03-07T22:33:09.532Z,9.00
2023-03-07T22:36:13.659Z,9.52
2023-03-07T22:39:16.281Z,9.43
2023-03-07T22:42:18.950Z,7.35
2023-03-07T22:45:21.654Z,8.48
2023-03-07T22:48:24.421Z,8.10
2023-03-07T22:51:27.274Z,8.45
2023-03-07T22:54:30.019Z,7.13
2023-03-07T22:57:32.698Z,6.00
2023-03-07T23:00:35.416Z,7.70
2023-03-07T23:03:38.099Z,6.00
2023-03-07T23:06:40.778Z,7.72
2023-03-07T23:09:43.433Z,7.93
2023-03-07T23:12:49.935Z,9.95
2023-03-07T23:15:52.567Z,6.32
2023-03-07T23:18:57.105Z,6.80
2023-03-07T23:21:59.704Z,6.82
2023-03-07T23:25:02.365Z,8.02
2023-03-07T23:28:05.066Z,5.88
2023-03-07T23:31:16.695Z,8.15
2023-03-07T23:34:20.625Z,8.27
2023-03-07T23:37:23.176Z,7.35
2023-03-07T23:40:25.805Z,7.50
2023-03-07T23:43:28.535Z,6.35
2023-03-07T23:46:32.131Z,7.75
2023-03-07T23:49:34.789Z,12.82
2023-03-07T23:52:37.396Z,8.82
2023-03-07T23:55:43.325Z,10.18
2023-03-07T23:58:50.006Z,12.35
